Time;durP1;ratioP1;P1;durP2;ratioP2;P2;SDS_P1;SDS_P2;PMS_P1;PMS_P2;Temp;Humidity;BMP_temperature;BMP_pressure;BME280_temperature;BME280_humidity;BME280_pressure;Samples;Min_cycle;Max_cycle;Signal;HPM_P1;HPM_P2
2023/04/17 00:01:10;;;;;;;2.08;1.00;;;6.90;98.80;;;;;;5017439;28;20196;-71
2023/04/17 00:03:43;;;;;;;1.90;0.90;;;6.90;98.70;;;;;;5017862;28;20704;-69
2023/04/17 00:06:12;;;;;;;2.00;1.00;;;6.90;98.40;;;;;;5017775;28;20251;-69
2023/04/17 00:08:40;;;;;;;1.75;0.95;;;6.90;98.60;;;;;;5017875;28;20196;-68
2023/04/17 00:11:07;;;;;;;2.17;0.85;;;6.80;98.70;;;;;;5017899;28;20199;-69
2023/04/17 00:13:35;;;;;;;1.83;0.70;;;6.80;98.80;;;;;;5017903;28;20602;-68
2023/04/17 00:16:02;;;;;;;1.88;0.90;;;6.70;98.70;;;;;;5017936;28;20195;-69
2023/04/17 00:18:31;;;;;;;2.55;0.75;;;6.70;98.80;;;;;;5002071;28;20191;-69
2023/04/17 00:20:58;;;;;;;2.15;0.90;;;6.60;98.80;;;;;;5018029;28;20192;-69
2023/04/17 00:23:26;;;;;;;1.77;0.95;;;6.60;98.90;;;;;;4997890;28;20578;-69
2023/04/17 00:25:53;;;;;;;1.80;0.80;;;6.50;98.80;;;;;;4998307;28;20200;-69
2023/04/17 00:28:21;;;;;;;1.90;1.00;;;6.50;99.00;;;;;;5016878;28;20187;-68
2023/04/17 00:30:48;;;;;;;1.85;0.85;;;6.50;99.00;;;;;;5017854;28;20204;-68
2023/04/17 00:33:16;;;;;;;1.98;0.80;;;6.50;99.00;;;;;;5017326;28;20192;-69
2023/04/17 00:35:44;;;;;;;2.40;1.10;;;6.40;99.00;;;;;;5017099;28;20713;-69
2023/04/17 00:38:12;;;;;;;3.20;1.25;;;6.40;99.20;;;;;;5017209;28;20270;-69
2023/04/17 00:40:40;;;;;;;2.17;1.13;;;6.30;99.40;;;;;;5016793;28;20196;-69
2023/04/17 00:43:08;;;;;;;2.45;0.90;;;6.30;99.30;;;;;;5017450;28;20262;-69
2023/04/17 00:45:41;;;;;;;1.95;1.05;;;6.30;99.20;;;;;;5016809;28;20187;-68
2023/04/17 00:48:12;;;;;;;2.03;1.10;;;6.20;99.10;;;;;;5016239;28;20198;-69
2023/04/17 00:50:39;;;;;;;2.20;1.13;;;6.20;99.20;;;;;;5016972;28;20180;-69
2023/04/17 00:53:08;;;;;;;2.40;1.33;;;6.10;99.50;;;;;;5017273;28;20202;-69
2023/04/17 00:55:38;;;;;;;2.35;1.38;;;6.00;99.70;;;;;;5017581;28;20667;-69
2023/04/17 00:58:05;;;;;;;2.90;1.35;;;6.00;99.90;;;;;;5017062;28;20650;-69
2023/04/17 01:00:34;;;;;;;4.10;2.47;;;5.90;99.90;;;;;;5017127;28;20211;-68
2023/04/17 01:03:02;;;;;;;4.57;2.42;;;5.90;99.90;;;;;;5017230;28;20223;-69
2023/04/17 01:05:34;;;;;;;5.75;2.08;;;5.90;99.90;;;;;;5016955;28;20184;-69
2023/04/17 01:08:01;;;;;;;3.75;2.50;;;5.80;99.90;;;;;;5017295;28;20195;-69
2023/04/17 01:10:30;;;;;;;1.85;1.10;;;5.80;99.90;;;;;;5017213;28;20253;-69
2023/04/17 01:13:04;;;;;;;3.20;1.15;;;5.70;99.70;;;;;;5017725;28;20286;-68
2023/04/17 01:15:31;;;;;;;1.98;1.00;;;5.60;99.20;;;;;;5016802;28;20211;-68
2023/04/17 01:17:59;;;;;;;3.67;1.30;;;5.50;99.00;;;;;;5017509;28;20203;-68
2023/04/17 01:20:29;;;;;;;2.45;1.27;;;5.40;98.80;;;;;;5016268;28;20188;-68
2023/04/17 01:22:58;;;;;;;3.65;1.80;;;5.40;98.60;;;;;;5017226;28;20326;-69
2023/04/17 01:25:27;;;;;;;2.95;1.38;;;;;;;;;;5017405;28;20274;-68
2023/04/17 01:27:56;;;;;;;2.55;1.20;;;5.20;98.80;;;;;;5016746;28;20199;-69
2023/04/17 01:30:24;;;;;;;2.45;1.50;;;5.20;98.90;;;;;;5016442;28;20192;-68
2023/04/17 01:32:54;;;;;;;3.33;2.00;;;5.10;99.00;;;;;;5016927;28;20191;-68
2023/04/17 01:35:21;;;;;;;3.60;1.90;;;5.10;99.00;;;;;;5016008;28;20188;-68
2023/04/17 01:37:49;;;;;;;4.68;1.90;;;5.00;99.10;;;;;;5016506;28;20250;-68
2023/04/17 01:40:19;;;;;;;2.80;1.50;;;4.90;99.20;;;;;;5016373;28;20187;-68
2023/04/17 01:42:48;;;;;;;2.30;1.27;;;4.90;99.50;;;;;;5016294;28;20203;-68
2023/04/17 01:45:15;;;;;;;3.05;2.38;;;4.90;99.40;;;;;;5016258;28;20199;-68
2023/04/17 01:47:46;;;;;;;3.97;1.60;;;4.90;99.30;;;;;;5017328;28;20319;-69
2023/04/17 01:50:13;;;;;;;5.15;2.58;;;4.80;99.30;;;;;;5016265;28;20199;-68
2023/04/17 01:52:41;;;;;;;3.70;2.40;;;4.80;99.50;;;;;;5016315;28;20192;-69
2023/04/17 01:55:09;;;;;;;3.55;2.50;;;4.70;99.70;;;;;;5016353;28;20206;-68
2023/04/17 01:57:36;;;;;;;4.93;2.67;;;4.70;99.80;;;;;;5016721;28;20192;-69
2023/04/17 02:00:08;;;;;;;5.18;3.13;;;4.60;99.80;;;;;;5015652;28;20184;-69
2023/04/17 02:02:35;;;;;;;7.13;2.60;;;4.60;99.90;;;;;;5016999;28;20199;-69
2023/04/17 02:05:03;;;;;;;6.20;4.05;;;4.50;99.90;;;;;;5016264;28;20198;-70
2023/04/17 02:07:30;;;;;;;7.47;4.78;;;4.50;99.90;;;;;;5016206;28;20533;-69
2023/04/17 02:09:57;;;;;;;5.63;2.72;;;4.50;99.90;;;;;;5015721;28;20238;-69
2023/04/17 02:12:25;;;;;;;4.78;3.20;;;4.50;99.90;;;;;;5016067;28;20203;-69
2023/04/17 02:14:53;;;;;;;3.40;2.30;;;4.40;99.90;;;;;;5015988;28;20187;-68
2023/04/17 02:17:22;;;;;;;3.13;2.13;;;4.40;99.90;;;;;;5016550;28;20195;-68
2023/04/17 02:19:49;;;;;;;3.05;2.10;;;4.30;99.90;;;;;;5014715;28;20191;-69
2023/04/17 02:22:17;;;;;;;7.38;2.70;;;4.30;99.90;;;;;;5016117;28;20195;-68
2023/04/17 02:24:49;;;;;;;5.50;2.35;;;4.30;99.90;;;;;;5015127;28;20215;-69
2023/04/17 02:27:17;;;;;;;5.85;2.40;;;4.30;99.90;;;;;;5015311;28;20227;-68
2023/04/17 02:29:45;;;;;;;4.50;2.42;;;4.30;99.90;;;;;;5014043;28;20192;-68
2023/04/17 02:32:15;;;;;;;4.60;2.95;;;4.30;99.90;;;;;;5015231;28;20244;-68
2023/04/17 02:34:44;;;;;;;3.97;2.47;;;4.30;99.90;;;;;;5014931;28;20226;-68
2023/04/17 02:37:11;;;;;;;3.03;1.90;;;4.30;99.90;;;;;;5014281;28;20694;-68
2023/04/17 02:39:38;;;;;;;3.00;1.92;;;4.30;99.90;;;;;;5016168;28;20203;-68
2023/04/17 02:42:09;;;;;;;2.70;1.75;;;4.20;99.90;;;;;;5015573;28;20218;-68
2023/04/17 02:44:41;;;;;;;2.70;1.50;;;4.20;99.90;;;;;;5015328;28;20216;-69
2023/04/17 02:47:13;;;;;;;2.42;1.65;;;4.20;99.70;;;;;;5015318;28;20238;-69
2023/04/17 02:49:41;;;;;;;1.98;1.05;;;4.10;99.30;;;;;;5015645;28;20196;-70
2023/04/17 02:52:10;;;;;;;2.65;1.25;;;4.10;99.00;;;;;;5014946;28;20650;-68
2023/04/17 02:54:37;;;;;;;3.72;1.00;;;4.00;98.80;;;;;;5014783;28;20215;-68
2023/04/17 02:57:04;;;;;;;4.95;1.85;;;4.00;98.60;;;;;;5015186;28;20560;-69
2023/04/17 02:59:32;;;;;;;10.27;2.35;;;4.00;98.40;;;;;;5014985;28;20195;-69
2023/04/17 03:02:00;;;;;;;6.10;1.95;;;3.90;98.40;;;;;;5014962;28;20250;-68
2023/04/17 03:04:27;;;;;;;12.50;2.20;;;3.80;98.40;;;;;;5014987;28;20219;-69
2023/04/17 03:06:55;;;;;;;4.95;2.00;;;3.70;98.70;;;;;;5015731;28;20210;-69
2023/04/17 03:09:24;;;;;;;7.47;2.50;;;3.70;98.70;;;;;;5015235;28;20195;-69
2023/04/17 03:11:52;;;;;;;10.02;3.25;;;3.60;99.10;;;;;;5014637;28;20257;-68
2023/04/17 03:14:19;;;;;;;18.98;3.60;;;3.60;99.40;;;;;;5015145;28;20191;-69
2023/04/17 03:16:47;;;;;;;13.60;3.10;;;3.50;99.90;;;;;;5015887;28;20192;-69
2023/04/17 03:19:18;;;;;;;24.15;3.45;;;3.50;99.90;;;;;;5015487;28;20205;-68
2023/04/17 03:21:46;;;;;;;9.15;3.35;;;3.40;99.90;;;;;;5014369;28;20243;-68
2023/04/17 03:24:13;;;;;;;7.70;2.90;;;3.50;99.90;;;;;;5014855;28;20251;-68
2023/04/17 03:26:42;;;;;;;13.57;2.30;;;3.50;99.90;;;;;;5014084;28;20191;-69
2023/04/17 03:29:09;;;;;;;8.02;2.40;;;3.40;99.90;;;;;;5015516;28;20188;-69
2023/04/17 03:31:37;;;;;;;3.17;1.65;;;3.40;99.90;;;;;;5014428;28;20661;-68
2023/04/17 03:34:04;;;;;;;7.93;2.60;;;3.30;99.90;;;;;;5015559;28;20203;-68
2023/04/17 03:36:31;;;;;;;6.63;1.50;;;3.30;99.90;;;;;;5014737;28;20183;-68
2023/04/17 03:38:59;;;;;;;4.03;1.63;;;3.30;99.90;;;;;;5015208;28;20219;-68
2023/04/17 03:41:26;;;;;;;7.85;2.58;;;3.40;99.90;;;;;;5014742;28;20195;-68
2023/04/17 03:43:55;;;;;;;4.75;2.90;;;3.30;99.90;;;;;;5014811;28;20266;-69
2023/04/17 03:46:22;;;;;;;8.90;2.55;;;3.30;99.90;;;;;;5015063;28;20202;-68
2023/04/17 03:48:49;;;;;;;6.57;3.67;;;3.30;99.90;;;;;;5014649;28;20627;-68
2023/04/17 03:51:17;;;;;;;6.50;4.22;;;3.30;99.90;;;;;;5014462;28;20242;-68
2023/04/17 03:53:44;;;;;;;8.68;4.45;;;3.30;99.90;;;;;;5014949;28;20196;-69
2023/04/17 03:56:12;;;;;;;7.55;3.80;;;3.20;99.90;;;;;;5014643;28;20195;-68
2023/04/17 03:58:40;;;;;;;6.38;5.78;;;3.20;99.90;;;;;;5014578;28;20283;-68
2023/04/17 04:01:09;;;;;;;6.35;4.57;;;3.20;99.70;;;;;;5014633;28;20205;-69
2023/04/17 04:03:41;;;;;;;4.63;3.10;;;3.10;99.60;;;;;;5014517;28;20207;-69
2023/04/17 04:06:08;;;;;;;4.97;3.25;;;3.10;99.60;;;;;;5015621;28;20195;-68
2023/04/17 04:08:36;;;;;;;5.60;3.58;;;3.10;99.40;;;;;;5013921;28;20203;-68
2023/04/17 04:11:03;;;;;;;5.72;3.25;;;3.10;99.20;;;;;;5014423;28;20643;-68
2023/04/17 04:13:30;;;;;;;6.30;3.17;;;3.00;99.20;;;;;;5015252;28;20188;-68
2023/04/17 04:15:58;;;;;;;6.20;3.00;;;3.00;99.40;;;;;;5014659;28;20199;-69
2023/04/17 04:18:27;;;;;;;4.30;2.70;;;3.00;99.50;;;;;;5014636;28;20632;-68
2023/04/17 04:20:54;;;;;;;4.75;2.75;;;3.00;99.60;;;;;;5014178;28;20188;-69
2023/04/17 04:23:23;;;;;;;4.18;2.33;;;3.10;99.70;;;;;;5017797;28;20192;-68
2023/04/17 04:25:51;;;;;;;5.55;2.35;;;3.10;99.80;;;;;;5018210;28;20594;-68
2023/04/17 04:28:22;;;;;;;4.97;2.15;;;3.20;99.40;;;;;;5018061;28;20650;-68
2023/04/17 04:30:58;;;;;;;3.40;1.90;;;3.20;99.20;;;;;;5017740;28;20188;-69
2023/04/17 04:33:31;;;;;;;2.42;1.50;;;3.30;99.10;;;;;;5018975;28;20196;-68
2023/04/17 04:36:00;;;;;;;3.13;1.60;;;3.30;99.00;;;;;;5017943;28;20196;-68
2023/04/17 04:38:32;;;;;;;5.65;2.72;;;3.40;98.90;;;;;;5017847;28;20232;-69
2023/04/17 04:41:09;;;;;;;4.30;2.90;;;3.50;99.10;;;;;;5017730;28;20192;-68
2023/04/17 04:43:41;;;;;;;4.32;3.30;;;3.50;99.00;;;;;;5018546;28;20637;-69
2023/04/17 04:46:17;;;;;;;6.82;3.75;;;3.60;99.20;;;;;;5018000;28;20230;-68
2023/04/17 04:48:46;;;;;;;5.18;3.67;;;3.70;99.20;;;;;;5016659;28;20639;-68
2023/04/17 04:51:22;;;;;;;4.72;4.03;;;3.70;99.10;;;;;;5017824;28;20242;-68
2023/04/17 04:53:50;;;;;;;4.93;4.30;;;3.80;99.10;;;;;;5018117;28;20241;-69
2023/04/17 04:56:18;;;;;;;5.00;3.85;;;3.80;99.00;;;;;;5018103;28;20206;-69
2023/04/17 04:58:45;;;;;;;7.72;4.53;;;3.90;98.80;;;;;;5017305;28;20184;-68
2023/04/17 05:01:12;;;;;;;6.05;3.75;;;4.00;98.50;;;;;;5017217;28;20192;-69
2023/04/17 05:03:41;;;;;;;5.20;3.13;;;4.00;98.10;;;;;;5017492;28;20707;-68
2023/04/17 05:06:12;;;;;;;4.10;3.35;;;4.00;97.90;;;;;;5017555;28;20736;-68
2023/04/17 05:08:39;;;;;;;4.18;3.22;;;4.00;97.60;;;;;;5017228;28;20192;-69
2023/04/17 05:11:07;;;;;;;4.82;3.10;;;4.00;97.60;;;;;;5017228;28;20195;-68
2023/04/17 05:13:34;;;;;;;4.82;2.80;;;4.10;97.40;;;;;;5017475;28;20250;-69
2023/04/17 05:16:02;;;;;;;3.83;2.60;;;4.10;97.40;;;;;;5016907;28;20218;-69
2023/04/17 05:18:29;;;;;;;3.67;2.53;;;4.10;97.30;;;;;;4997536;28;20192;-68
2023/04/17 05:20:56;;;;;;;4.20;2.60;;;4.10;97.30;;;;;;5007544;28;20668;-70
2023/04/17 05:23:28;;;;;;;3.22;2.20;;;4.20;97.30;;;;;;5019488;28;20199;-69
2023/04/17 05:25:55;;;;;;;2.90;2.00;;;4.20;97.30;;;;;;5017748;28;20274;-68
2023/04/17 05:28:23;;;;;;;4.40;1.80;;;4.30;96.80;;;;;;5020840;28;20215;-69
2023/04/17 05:30:51;;;;;;;2.67;1.73;;;4.40;96.90;;;;;;5011498;28;20558;-69
2023/04/17 05:33:18;;;;;;;4.18;3.25;;;4.40;96.80;;;;;;5016509;28;20968;-68
2023/04/17 05:35:50;;;;;;;3.40;2.50;;;4.50;96.90;;;;;;5017163;28;20200;-68
2023/04/17 05:38:18;;;;;;;3.15;1.90;;;4.60;97.40;;;;;;5021023;28;20223;-68
2023/04/17 05:40:47;;;;;;;3.50;2.40;;;4.70;97.20;;;;;;5013096;28;20261;-68
2023/04/17 05:43:14;;;;;;;3.92;2.67;;;4.90;97.20;;;;;;5013021;28;20191;-68
2023/04/17 05:45:51;;;;;;;3.60;2.47;;;5.00;97.10;;;;;;5008798;28;20216;-69
2023/04/17 05:48:20;;;;;;;4.22;2.88;;;5.20;97.00;;;;;;5016544;28;20199;-69
2023/04/17 05:50:50;;;;;;;4.18;3.13;;;5.40;96.50;;;;;;5021298;28;20206;-69
2023/04/17 05:53:18;;;;;;;4.80;3.03;;;5.40;96.70;;;;;;5018596;28;20275;-69
2023/04/17 05:55:47;;;;;;;3.63;2.60;;;5.50;96.40;;;;;;5017855;28;20658;-69
2023/04/17 05:58:16;;;;;;;6.50;2.85;;;5.50;96.30;;;;;;5021665;28;20230;-69
2023/04/17 06:00:45;;;;;;;4.53;3.55;;;5.40;96.20;;;;;;5020797;28;20195;-69
2023/04/17 06:03:17;;;;;;;4.28;2.72;;;5.50;96.40;;;;;;5013454;28;20199;-69
2023/04/17 06:05:45;;;;;;;3.30;2.60;;;5.50;96.00;;;;;;5021344;28;20220;-69
2023/04/17 06:08:30;;;;;;;3.70;2.80;;;5.40;96.50;;;;;;5016332;28;20194;-69
2023/04/17 06:10:59;;;;;;;3.88;2.80;;;5.40;96.90;;;;;;5022387;28;20214;-69
2023/04/17 06:16:55;;;;;;;4.05;2.28;;;5.50;97.30;;;;;;5151899;27;21065;-67
2023/04/17 06:19:27;;;;;;;2.95;2.00;;;5.60;97.90;;;;;;5130392;27;20645;-67
2023/04/17 06:21:58;;;;;;;3.20;2.00;;;5.60;98.20;;;;;;5133195;27;20633;-67
2023/04/17 06:24:28;;;;;;;4.32;2.22;;;5.60;98.60;;;;;;5148543;27;20191;-67
2023/04/17 06:27:07;;;;;;;3.40;2.70;;;5.70;98.60;;;;;;5142424;27;20285;-67
2023/04/17 06:29:43;;;;;;;4.85;1.90;;;5.80;98.40;;;;;;5146947;27;20261;-67
2023/04/17 06:32:12;;;;;;;4.47;2.30;;;5.90;98.30;;;;;;5139262;27;20516;-67
2023/04/17 06:34:47;;;;;;;2.60;1.90;;;6.00;98.30;;;;;;5150407;27;20217;-67
2023/04/17 06:37:13;;;;;;;3.78;2.25;;;6.00;98.20;;;;;;5150717;27;20214;-67
2023/04/17 06:39:40;;;;;;;3.40;2.30;;;6.00;98.60;;;;;;5151181;27;20223;-67
2023/04/17 06:42:07;;;;;;;3.25;2.10;;;6.10;99.10;;;;;;5150924;27;20223;-67
2023/04/17 06:44:34;;;;;;;4.20;3.00;;;6.10;98.60;;;;;;5149697;27;20223;-67
2023/04/17 06:47:03;;;;;;;7.25;3.60;;;6.20;98.50;;;;;;5150260;27;20274;-69
2023/04/17 06:49:32;;;;;;;6.07;4.40;;;6.30;98.20;;;;;;5150802;27;20222;-66
2023/04/17 06:51:59;;;;;;;4.85;3.47;;;6.30;98.10;;;;;;5151404;27;20274;-67
2023/04/17 06:54:26;;;;;;;5.78;4.03;;;6.30;98.10;;;;;;5151403;27;20236;-66
2023/04/17 06:56:53;;;;;;;3.83;3.35;;;6.30;98.30;;;;;;5151173;27;20219;-66
2023/04/17 06:59:20;;;;;;;5.03;4.00;;;6.20;98.50;;;;;;5150767;27;20227;-66
2023/04/17 07:01:47;;;;;;;4.22;3.38;;;6.30;98.50;;;;;;5151092;27;20278;-67
2023/04/17 07:04:16;;;;;;;7.15;4.88;;;6.20;98.80;;;;;;5151363;27;20234;-66
2023/04/17 07:06:45;;;;;;;5.95;3.42;;;6.20;99.20;;;;;;5151165;27;20191;-66
2023/04/17 07:09:12;;;;;;;4.35;3.58;;;6.20;99.50;;;;;;5151000;27;20198;-66
2023/04/17 07:11:39;;;;;;;6.38;3.60;;;6.30;99.70;;;;;;5151066;27;20238;-66
2023/04/17 07:14:05;;;;;;;4.38;3.70;;;6.40;99.70;;;;;;5150732;27;20239;-66
2023/04/17 07:16:32;;;;;;;4.85;3.50;;;6.40;99.20;;;;;;5150827;27;20317;-66
2023/04/17 07:19:00;;;;;;;6.60;4.55;;;6.40;99.10;;;;;;5150612;27;20248;-67
2023/04/17 07:21:27;;;;;;;4.88;3.38;;;6.40;99.60;;;;;;5150869;27;20219;-67
2023/04/17 07:23:55;;;;;;;10.05;7.55;;;6.50;99.20;;;;;;5150929;27;20187;-67
2023/04/17 07:26:24;;;;;;;9.20;6.70;;;6.40;99.70;;;;;;5146497;27;20241;-66
2023/04/17 07:28:51;;;;;;;11.05;6.15;;;6.50;99.70;;;;;;5137041;27;20275;-66
2023/04/17 07:31:18;;;;;;;6.13;4.30;;;6.50;99.50;;;;;;5136836;27;20230;-66
2023/04/17 07:33:45;;;;;;;42.05;26.15;;;6.60;99.40;;;;;;5136867;27;20279;-67
2023/04/17 07:36:12;;;;;;;81.15;42.97;;;6.60;99.80;;;;;;5136710;27;20254;-67
2023/04/17 07:38:40;;;;;;;18.00;12.50;;;6.60;99.90;;;;;;5136775;27;20274;-66
2023/04/17 07:41:08;;;;;;;7.25;6.03;;;6.70;99.90;;;;;;5136587;27;20188;-66
2023/04/17 07:43:35;;;;;;;5.15;3.70;;;6.80;99.80;;;;;;5136689;27;20249;-67
2023/04/17 07:46:02;;;;;;;4.65;3.20;;;6.90;99.50;;;;;;5136641;27;20188;-66
2023/04/17 07:48:29;;;;;;;4.32;3.65;;;6.90;99.40;;;;;;5136454;27;20278;-66
2023/04/17 07:50:58;;;;;;;6.10;4.53;;;7.00;99.50;;;;;;5136898;27;20542;-66
2023/04/17 07:53:27;;;;;;;5.60;4.70;;;7.00;99.30;;;;;;5137013;27;20204;-66
2023/04/17 07:55:54;;;;;;;6.22;4.57;;;7.10;99.20;;;;;;5136505;27;20211;-66
2023/04/17 07:58:23;;;;;;;5.80;4.22;;;7.10;99.30;;;;;;5136527;27;20214;-66
2023/04/17 08:00:50;;;;;;;4.97;3.63;;;7.20;99.30;;;;;;5136140;27;20191;-66
2023/04/17 08:03:20;;;;;;;6.30;4.55;;;7.30;99.10;;;;;;5135985;27;20268;-67
2023/04/17 08:05:47;;;;;;;5.50;4.20;;;7.30;98.80;;;;;;5136426;27;20242;-67
2023/04/17 08:08:15;;;;;;;5.28;3.45;;;7.30;98.80;;;;;;5136090;27;20190;-67
2023/04/17 08:10:42;;;;;;;7.65;5.80;;;7.30;98.80;;;;;;5136076;27;20603;-66
2023/04/17 08:13:09;;;;;;;6.47;4.85;;;7.40;98.90;;;;;;5136078;27;20661;-66
2023/04/17 08:15:39;;;;;;;5.43;4.10;;;7.40;99.10;;;;;;5135844;27;20314;-67
2023/04/17 08:18:07;;;;;;;4.75;3.75;;;7.50;99.30;;;;;;5135711;27;20204;-66
2023/04/17 08:20:34;;;;;;;5.68;4.40;;;7.60;99.70;;;;;;5135869;27;20245;-66
2023/04/17 08:23:06;;;;;;;5.40;4.22;;;7.90;99.80;;;;;;5135923;27;20283;-67
2023/04/17 08:25:33;;;;;;;4.82;4.00;;;8.20;98.40;;;;;;5135966;27;20227;-67
2023/04/17 08:28:00;;;;;;;5.15;4.05;;;8.50;97.20;;;;;;5135957;27;20278;-66
2023/04/17 08:30:32;;;;;;;7.15;3.90;;;8.80;96.90;;;;;;5135409;27;20188;-67
2023/04/17 08:33:00;;;;;;;5.03;3.90;;;9.40;96.20;;;;;;5135992;27;20283;-67
2023/04/17 08:35:27;;;;;;;5.60;3.20;;;10.30;93.50;;;;;;5132717;27;20298;-67
2023/04/17 08:37:57;;;;;;;4.60;3.63;;;10.70;91.90;;;;;;5129737;27;20195;-67
2023/04/17 08:40:25;;;;;;;4.72;3.70;;;10.90;90.10;;;;;;5131658;27;20230;-67
2023/04/17 08:42:53;;;;;;;4.45;3.22;;;11.00;89.30;;;;;;5132874;27;20195;-67
2023/04/17 08:45:22;;;;;;;4.35;3.25;;;11.10;88.80;;;;;;5131960;27;20287;-67
2023/04/17 08:47:49;;;;;;;4.00;2.88;;;11.10;90.10;;;;;;5126765;27;20236;-67
2023/04/17 08:50:20;;;;;;;4.95;3.60;;;11.20;84.40;;;;;;5132177;27;20195;-67
2023/04/17 08:52:48;;;;;;;3.80;3.03;;;11.10;84.70;;;;;;5132249;27;20199;-66
2023/04/17 08:55:18;;;;;;;3.65;2.60;;;11.10;85.00;;;;;;5131539;27;20199;-67
2023/04/17 08:57:56;;;;;;;3.20;2.58;;;11.10;84.70;;;;;;5134023;27;20200;-66
2023/04/17 09:00:27;;;;;;;4.28;3.30;;;11.10;84.80;;;;;;5126963;27;20246;-67
2023/04/17 09:02:56;;;;;;;5.47;2.78;;;11.10;86.30;;;;;;5128156;27;20576;-67
2023/04/17 09:05:25;;;;;;;4.78;3.78;;;11.10;86.10;;;;;;5122372;27;20200;-67
2023/04/17 09:08:08;;;;;;;3.75;2.75;;;11.00;85.20;;;;;;5134149;27;20227;-67
2023/04/17 09:10:36;;;;;;;4.32;3.10;;;10.90;85.60;;;;;;5130745;27;20287;-67
2023/04/17 09:13:03;;;;;;;4.15;3.03;;;10.80;86.60;;;;;;5128531;27;20196;-67
2023/04/17 09:15:30;;;;;;;2.65;2.10;;;10.80;87.20;;;;;;5133680;27;20231;-67
2023/04/17 09:17:57;;;;;;;4.15;3.17;;;10.80;86.80;;;;;;5129806;27;20302;-67
2023/04/17 09:20:26;;;;;;;3.00;2.45;;;10.70;86.20;;;;;;5130583;27;20651;-67
2023/04/17 09:23:00;;;;;;;4.18;2.42;;;10.70;85.50;;;;;;5130568;27;20196;-67
2023/04/17 09:25:27;;;;;;;3.08;2.20;;;10.70;84.50;;;;;;5129756;27;20248;-67
2023/04/17 09:27:54;;;;;;;3.40;2.20;;;10.60;85.70;;;;;;5134123;27;20656;-67
2023/04/17 09:30:25;;;;;;;3.60;2.65;;;10.60;86.40;;;;;;5133881;27;20195;-66
2023/04/17 09:33:03;;;;;;;3.40;2.42;;;10.50;85.80;;;;;;5126738;27;20192;-67
2023/04/17 09:35:32;;;;;;;3.28;2.78;;;10.60;85.20;;;;;;5129564;27;20187;-67
2023/04/17 09:37:59;;;;;;;3.17;2.35;;;10.60;86.10;;;;;;5130111;27;20188;-67
2023/04/17 09:40:27;;;;;;;3.90;2.90;;;10.60;86.20;;;;;;5133243;27;20199;-67
2023/04/17 09:42:59;;;;;;;3.17;2.50;;;10.60;86.10;;;;;;5130810;27;20188;-67
2023/04/17 09:45:31;;;;;;;3.92;2.95;;;10.60;83.90;;;;;;5128872;27;20187;-66
2023/04/17 09:47:59;;;;;;;3.10;2.00;;;10.50;85.10;;;;;;5133367;27;20642;-67
2023/04/17 09:50:27;;;;;;;3.40;2.10;;;10.40;86.00;;;;;;5133532;27;20618;-67
2023/04/17 09:52:56;;;;;;;3.13;2.30;;;10.30;86.40;;;;;;5130332;27;20578;-66
2023/04/17 09:55:25;;;;;;;2.80;1.90;;;10.30;85.40;;;;;;5131860;27;20234;-66
2023/04/17 09:57:54;;;;;;;2.97;2.03;;;10.30;84.60;;;;;;5133291;27;20196;-66
2023/04/17 10:00:22;;;;;;;2.97;1.95;;;10.30;83.40;;;;;;5128350;27;20245;-67
2023/04/17 10:02:51;;;;;;;3.47;2.70;;;10.20;83.20;;;;;;5132656;27;20638;-66
2023/04/17 10:05:18;;;;;;;7.15;2.88;;;10.20;85.40;;;;;;5133212;27;20311;-66
2023/04/17 10:07:46;;;;;;;3.47;2.47;;;10.20;86.50;;;;;;5128899;27;20241;-67
2023/04/17 10:10:22;;;;;;;2.97;2.00;;;10.10;86.70;;;;;;5124657;28;20611;-69
2023/04/17 10:12:51;;;;;;;4.30;2.28;;;10.10;87.20;;;;;;5132816;27;20252;-67
2023/04/17 10:15:20;;;;;;;3.47;2.70;;;10.10;88.00;;;;;;5131841;28;20227;-67
2023/04/17 10:17:48;;;;;;;3.42;2.13;;;10.10;88.00;;;;;;5128874;28;20228;-67
2023/04/17 10:20:38;;;;;;;2.90;1.80;;;10.00;85.70;;;;;;5131653;28;20238;-66
2023/04/17 10:23:28;;;;;;;3.90;2.80;;;9.90;87.20;;;;;;5128786;28;20184;-66
2023/04/17 10:26:37;;;;;;;5.47;3.85;;;9.90;88.90;;;;;;5126536;28;20196;-67
2023/04/17 10:29:06;;;;;;;2.75;2.35;;;9.90;90.10;;;;;;5108709;28;20240;-66
2023/04/17 10:32:24;;;;;;;4.72;3.20;;;10.00;90.50;;;;;;5128703;28;20282;-67
2023/04/17 10:34:51;;;;;;;6.43;3.22;;;10.00;90.90;;;;;;5130467;28;20198;-67
2023/04/17 10:37:21;;;;;;;3.85;3.15;;;10.10;90.90;;;;;;5129380;28;20565;-67
2023/04/17 10:39:55;;;;;;;3.90;2.75;;;10.10;90.90;;;;;;5133129;28;20234;-67
2023/04/17 10:42:24;;;;;;;3.40;2.78;;;10.10;90.30;;;;;;5126636;28;20213;-67
2023/04/17 10:44:57;;;;;;;13.02;11.77;;;10.10;90.60;;;;;;5133046;28;20237;-67
2023/04/17 10:47:35;;;;;;;3.85;3.13;;;10.00;90.80;;;;;;5128278;28;20224;-67
2023/04/17 10:50:04;;;;;;;3.58;2.75;;;10.10;90.80;;;;;;5125942;28;20225;-67
2023/04/17 10:52:39;;;;;;;3.40;2.47;;;10.10;91.10;;;;;;5127495;28;20265;-67
2023/04/17 10:55:07;;;;;;;2.80;2.00;;;10.10;91.20;;;;;;5131549;28;20705;-67
2023/04/17 10:57:54;;;;;;;3.45;2.22;;;10.10;91.30;;;;;;5129901;28;20221;-67
2023/04/17 11:00:34;;;;;;;3.90;2.47;;;10.20;90.70;;;;;;5125424;28;20192;-66
2023/04/17 11:03:02;;;;;;;3.45;2.40;;;10.10;91.10;;;;;;5135182;27;20192;-67
2023/04/17 11:05:30;;;;;;;3.20;2.33;;;10.00;91.40;;;;;;5131166;27;20192;-67
2023/04/17 11:07:57;;;;;;;3.25;2.42;;;10.00;91.50;;;;;;5132217;27;20211;-66
2023/04/17 11:10:36;;;;;;;2.80;2.28;;;10.00;92.20;;;;;;5123023;27;20279;-67
2023/04/17 11:13:10;;;;;;;4.25;2.22;;;10.00;91.30;;;;;;5131040;27;20192;-67
2023/04/17 11:15:39;;;;;;;3.30;2.20;;;10.00;90.80;;;;;;5132017;27;20769;-67
2023/04/17 11:18:06;;;;;;;2.90;1.90;;;9.90;91.30;;;;;;5128620;27;20212;-67
2023/04/17 11:20:36;;;;;;;2.38;1.88;;;9.90;92.30;;;;;;5123164;27;20278;-68
2023/04/17 11:23:04;;;;;;;2.63;1.98;;;9.80;92.40;;;;;;5123902;27;20208;-67
2023/04/17 11:25:32;;;;;;;2.95;1.77;;;9.70;92.90;;;;;;5127602;27;20188;-67
2023/04/17 11:28:03;;;;;;;3.05;1.98;;;9.70;93.40;;;;;;5124414;27;20579;-67
2023/04/17 11:30:32;;;;;;;3.95;1.90;;;9.70;94.00;;;;;;5118754;27;20253;-67
2023/04/17 11:33:02;;;;;;;5.20;2.75;;;9.70;93.50;;;;;;5120380;27;20252;-67
2023/04/17 11:35:31;;;;;;;3.92;2.72;;;9.80;93.80;;;;;;5122729;27;20238;-67
2023/04/17 11:38:06;;;;;;;3.80;2.55;;;10.00;93.50;;;;;;5123529;27;20284;-68
2023/04/17 11:40:48;;;;;;;3.05;2.13;;;10.20;92.60;;;;;;5128008;27;20290;-67
2023/04/17 11:43:21;;;;;;;2.60;1.90;;;10.40;92.30;;;;;;5123972;27;20227;-67
2023/04/17 11:45:52;;;;;;;3.90;2.05;;;10.80;90.90;;;;;;5124373;27;20253;-67
2023/04/17 11:48:24;;;;;;;3.00;1.80;;;11.40;90.20;;;;;;5128476;27;20195;-67
2023/04/17 11:51:00;;;;;;;2.42;1.50;;;12.10;88.30;;;;;;5123428;27;20228;-67
2023/04/17 11:53:45;;;;;;;2.83;1.90;;;13.00;88.10;;;;;;5124066;27;20709;-67
2023/04/17 11:56:18;;;;;;;3.00;1.90;;;13.90;86.00;;;;;;5121748;27;20837;-67
2023/04/17 11:58:49;;;;;;;2.83;2.07;;;14.70;80.30;;;;;;5122698;27;20844;-67
2023/04/17 12:01:24;;;;;;;2.50;1.40;;;15.20;75.60;;;;;;5125018;27;20438;-67
2023/04/17 12:03:59;;;;;;;2.27;1.47;;;15.50;70.50;;;;;;5127621;27;20915;-67
2023/04/17 12:06:40;;;;;;;1.73;0.93;;;15.80;67.00;;;;;;5122309;27;20506;-67
2023/04/17 12:09:29;;;;;;;2.30;1.40;;;16.10;61.10;;;;;;5114628;27;20492;-67
2023/04/17 12:12:05;;;;;;;4.47;1.90;;;16.30;58.50;;;;;;5127112;27;20440;-67
2023/04/17 12:14:34;;;;;;;3.40;1.73;;;16.40;58.50;;;;;;5122288;27;20844;-67
2023/04/17 12:17:03;;;;;;;2.90;1.80;;;16.50;59.20;;;;;;5122618;27;20473;-68
2023/04/17 12:19:45;;;;;;;3.50;2.10;;;16.60;58.30;;;;;;5126825;27;20438;-68
2023/04/17 12:22:12;;;;;;;6.30;2.10;;;16.80;58.00;;;;;;5125257;27;20490;-67
2023/04/17 12:24:42;;;;;;;3.10;2.33;;;17.10;57.00;;;;;;5125597;27;20499;-68
2023/04/17 12:27:11;;;;;;;4.50;3.80;;;17.20;56.50;;;;;;5121011;27;20499;-67
2023/04/17 12:29:39;;;;;;;6.03;4.67;;;17.40;57.20;;;;;;5123306;27;20440;-68
2023/04/17 12:32:09;;;;;;;6.10;4.40;;;17.70;57.20;;;;;;5124552;27;20433;-67
2023/04/17 12:34:37;;;;;;;4.70;3.40;;;18.00;56.00;;;;;;5124364;27;20430;-68
2023/04/17 12:37:09;;;;;;;5.27;4.10;;;18.00;54.40;;;;;;5123252;27;20557;-68
2023/04/17 12:39:36;;;;;;;5.13;3.80;;;17.70;56.40;;;;;;5127293;27;20441;-68
2023/04/17 12:42:05;;;;;;;5.40;4.43;;;17.40;55.70;;;;;;5122192;27;20481;-67
2023/04/17 12:44:33;;;;;;;5.63;4.93;;;17.00;54.40;;;;;;5118064;27;20438;-67
2023/04/17 12:47:00;;;;;;;8.07;6.07;;;16.60;54.20;;;;;;5120689;27;20434;-68
2023/04/17 12:49:29;;;;;;;6.73;5.70;;;16.40;55.30;;;;;;5124375;27;20495;-67
2023/04/17 12:51:58;;;;;;;7.83;6.03;;;16.10;55.60;;;;;;5117726;27;20430;-67
2023/04/17 12:54:30;;;;;;;9.00;5.13;;;15.70;56.30;;;;;;5126281;27;20517;-67
2023/04/17 12:57:02;;;;;;;8.27;6.10;;;15.30;57.30;;;;;;5123084;27;20549;-67
2023/04/17 12:59:29;;;;;;;8.27;6.60;;;15.00;58.40;;;;;;5120443;27;20450;-67
2023/04/17 13:02:02;;;;;;;9.97;7.03;;;14.70;59.00;;;;;;5125002;27;20901;-67
2023/04/17 13:04:29;;;;;;;10.13;7.67;;;14.50;61.70;;;;;;5124642;27;20461;-67
2023/04/17 13:07:00;;;;;;;12.07;6.20;;;14.40;61.50;;;;;;5119556;27;20442;-67
2023/04/17 13:09:27;;;;;;;7.10;6.20;;;14.20;60.30;;;;;;5124619;27;20454;-67